Time;durP1;ratioP1;P1;durP2;ratioP2;P2;SDS_P1;SDS_P2;PMS_P1;PMS_P2;Temp;Humidity;BMP_temperature;BMP_pressure;BME280_temperature;BME280_humidity;BME280_pressure;Samples;Min_cycle;Max_cycle;Signal;HPM_P1;HPM_P2
2022/10/28 09:50:47;;;;;;;0.20;0.20;;;23.20;94.50;;;;;;5665711;23;20621;-80
2022/10/28 09:53:20;;;;;;;0.22;0.22;;;23.40;94.60;;;;;;4844626;29;20049;-79
2022/10/28 09:55:46;;;;;;;0.10;0.10;;;23.50;94.50;;;;;;4846113;29;20030;-78
2022/10/28 09:58:12;;;;;;;0.10;0.10;;;23.70;94.50;;;;;;4857656;29;20134;-77
2022/10/28 10:00:38;;;;;;;0.10;0.10;;;23.80;94.50;;;;;;4844683;29;20045;-78
2022/10/28 10:03:04;;;;;;;0.10;0.10;;;24.00;94.60;;;;;;4858658;29;20374;-76
2022/10/28 10:05:36;;;;;;;0.10;0.10;;;24.30;94.70;;;;;;4845449;29;20029;-77
2022/10/28 10:08:04;;;;;;;0.00;0.00;;;24.60;94.70;;;;;;4846743;29;20456;-78
2022/10/28 10:10:48;;;;;;;0.00;0.00;;;24.90;94.70;;;;;;4859711;29;20041;-78
2022/10/28 10:13:17;;;;;;;0.00;0.00;;;25.20;94.90;;;;;;4850341;29;20018;-83
2022/10/28 10:16:16;;;;;;;0.00;0.00;;;25.40;94.70;;;;;;4872667;29;20037;-83
2022/10/28 10:18:47;;;;;;;0.00;0.00;;;25.50;94.60;;;;;;4844695;29;20041;-83
2022/10/28 10:21:15;;;;;;;0.00;0.00;;;25.60;94.50;;;;;;4852134;29;20450;-83
2022/10/28 10:23:41;;;;;;;0.00;0.00;;;25.50;94.50;;;;;;4849147;29;20482;-83
2022/10/28 10:26:15;;;;;;;0.00;0.00;;;25.70;94.80;;;;;;4855245;29;20133;-84
2022/10/28 10:28:49;;;;;;;0.00;0.00;;;25.90;94.80;;;;;;4868823;29;20113;-82
2022/10/28 10:31:24;;;;;;;0.00;0.00;;;25.90;94.60;;;;;;4859724;29;20026;-86
2022/10/28 10:33:56;;;;;;;0.00;0.00;;;25.90;94.50;;;;;;4872887;29;20465;-85
2022/10/28 10:36:27;;;;;;;0.00;0.00;;;25.90;94.80;;;;;;4856395;29;20030;-78
2022/10/28 10:38:58;;;;;;;0.00;0.00;;;26.10;95.20;;;;;;4856042;29;20022;-79
2022/10/28 10:41:33;;;;;;;0.00;0.00;;;26.30;95.10;;;;;;4857756;29;20632;-78
2022/10/28 10:43:59;;;;;;;0.00;0.00;;;26.20;94.80;;;;;;4857807;29;20378;-78
2022/10/28 10:46:26;;;;;;;0.00;0.00;;;25.90;94.20;;;;;;4856998;29;20036;-78
2022/10/28 10:49:13;;;;;;;0.00;0.00;;;25.60;94.50;;;;;;4855370;29;20043;-80
2022/10/28 10:51:49;;;;;;;0.00;0.00;;;25.50;94.80;;;;;;4855586;29;20057;-81
2022/10/28 10:54:14;;;;;;;0.00;0.00;;;25.40;94.70;;;;;;4852444;29;20057;-79
2022/10/28 10:56:40;;;;;;;0.00;0.00;;;25.40;94.90;;;;;;4824055;29;20065;-77
2022/10/28 10:59:22;;;;;;;0.00;0.00;;;25.40;94.80;;;;;;4858064;29;20134;-77
2022/10/28 11:01:48;;;;;;;0.03;0.03;;;25.50;95.00;;;;;;4861530;29;20458;-78
2022/10/28 11:04:25;;;;;;;0.00;0.00;;;25.70;95.00;;;;;;4853562;29;20120;-78
2022/10/28 11:06:54;;;;;;;0.00;0.00;;;25.70;94.70;;;;;;4864201;29;20032;-74
2022/10/28 11:09:31;;;;;;;0.00;0.00;;;25.60;94.60;;;;;;4847989;29;20034;-77
2022/10/28 11:11:57;;;;;;;0.00;0.00;;;25.40;94.50;;;;;;4862702;29;20078;-80
2022/10/28 11:14:31;;;;;;;0.00;0.00;;;25.20;94.60;;;;;;4848205;29;20451;-78
2022/10/28 11:17:00;;;;;;;0.03;0.00;;;25.10;94.60;;;;;;4846210;29;20037;-78
2022/10/28 11:19:33;;;;;;;0.00;0.00;;;25.00;94.70;;;;;;4857141;29;20030;-80
2022/10/28 11:21:59;;;;;;;0.00;0.00;;;24.90;94.70;;;;;;4855449;29;20040;-79
2022/10/28 11:24:54;;;;;;;0.00;0.00;;;24.90;94.90;;;;;;4856318;29;20029;-75
2022/10/28 11:27:38;;;;;;;0.00;0.00;;;25.00;94.90;;;;;;4825853;29;20427;-77
2022/10/28 11:30:09;;;;;;;0.00;0.00;;;25.00;94.80;;;;;;4856797;29;20119;-76
2022/10/28 11:32:50;;;;;;;0.00;0.00;;;25.10;95.00;;;;;;4855656;29;20041;-76
2022/10/28 11:35:31;;;;;;;0.80;0.25;;;25.20;94.70;;;;;;4856112;29;20028;-77
2022/10/28 11:38:15;;;;;;;0.00;0.00;;;25.20;94.70;;;;;;4855840;29;20050;-76
2022/10/28 11:41:19;;;;;;;0.00;0.00;;;25.10;94.70;;;;;;4856093;29;20104;-76
2022/10/28 11:43:57;;;;;;;0.00;0.00;;;25.00;94.70;;;;;;4839835;29;20098;-75
2022/10/28 11:46:40;;;;;;;0.00;0.00;;;24.90;94.70;;;;;;4855878;29;20058;-75
2022/10/28 11:49:08;;;;;;;0.00;0.00;;;24.70;94.60;;;;;;4856819;29;20037;-75
2022/10/28 11:52:02;;;;;;;0.00;0.00;;;24.30;94.10;;;;;;4855978;29;20411;-77
2022/10/28 11:54:45;;;;;;;0.00;0.00;;;24.00;94.80;;;;;;4856561;29;20059;-78
2022/10/28 11:57:18;;;;;;;0.00;0.00;;;24.00;94.80;;;;;;4856196;29;20021;-77
2022/10/28 12:00:14;;;;;;;0.00;0.00;;;23.90;94.80;;;;;;4855040;29;20064;-79
2022/10/28 12:03:19;;;;;;;0.00;0.00;;;23.90;95.10;;;;;;4839093;29;20434;-80
2022/10/28 12:06:03;;;;;;;0.00;0.00;;;24.10;95.20;;;;;;4839301;29;20500;-79
2022/10/28 12:08:52;;;;;;;0.00;0.00;;;24.30;95.10;;;;;;4839115;29;20619;-81
2022/10/28 12:11:31;;;;;;;0.00;0.00;;;24.20;94.90;;;;;;4856795;29;20077;-82
2022/10/28 12:14:12;;;;;;;0.00;0.00;;;24.20;94.80;;;;;;4855617;29;20112;-78
2022/10/28 12:16:47;;;;;;;0.00;0.00;;;24.20;94.80;;;;;;4839732;29;20026;-79
2022/10/28 12:19:37;;;;;;;0.00;0.00;;;24.10;94.80;;;;;;4832134;29;20030;-76
2022/10/28 12:22:36;;;;;;;0.00;0.00;;;23.90;94.70;;;;;;4845551;29;20179;-78
2022/10/28 12:25:11;;;;;;;0.00;0.00;;;23.40;94.00;;;;;;4837775;29;20516;-77
2022/10/28 12:27:42;;;;;;;0.00;0.00;;;23.00;94.50;;;;;;4842800;29;20036;-79
2022/10/28 12:30:26;;;;;;;0.00;0.00;;;22.90;94.90;;;;;;4833132;29;20580;-79
2022/10/28 12:33:02;;;;;;;0.00;0.00;;;22.90;95.20;;;;;;4845666;29;20026;-80
2022/10/28 12:35:35;;;;;;;0.00;0.00;;;23.10;95.30;;;;;;4829962;29;20033;-81
2022/10/28 12:38:31;;;;;;;0.00;0.00;;;23.20;95.10;;;;;;4837455;29;20447;-78
2022/10/28 12:41:25;;;;;;;0.00;0.00;;;23.20;95.00;;;;;;4849634;29;20029;-78
2022/10/28 12:44:03;;;;;;;0.00;0.00;;;23.20;95.00;;;;;;4839165;29;20105;-79
2022/10/28 12:46:32;;;;;;;0.00;0.00;;;23.20;95.10;;;;;;4856942;29;20029;-81
2022/10/28 12:49:22;;;;;;;0.00;0.00;;;23.10;95.00;;;;;;4856883;29;20381;-83
2022/10/28 12:51:48;;;;;;;0.00;0.00;;;23.10;94.90;;;;;;4848469;29;20042;-82
2022/10/28 12:54:32;;;;;;;0.00;0.00;;;23.00;94.90;;;;;;4839559;29;20106;-78
2022/10/28 12:57:09;;;;;;;0.75;0.30;;;22.80;94.80;;;;;;4855658;29;20041;-80
2022/10/28 12:59:41;;;;;;;0.00;0.00;;;22.60;94.70;;;;;;4839261;29;20125;-75
2022/10/28 13:02:16;;;;;;;0.00;0.00;;;22.40;94.70;;;;;;4838879;29;20133;-77
2022/10/28 13:04:42;;;;;;;0.00;0.00;;;22.30;94.80;;;;;;4837957;29;20033;-77
2022/10/28 13:07:29;;;;;;;0.00;0.00;;;22.20;94.90;;;;;;4838696;29;20117;-77
2022/10/28 13:10:04;;;;;;;;;;;22.20;95.00;;;;;;4854986;29;20097;-77
2022/10/28 13:13:02;;;;;;;0.00;0.00;;;22.30;95.00;;;;;;4854941;29;20120;-75
2022/10/28 13:15:48;;;;;;;0.00;0.00;;;22.20;95.00;;;;;;4838632;29;20061;-67
2022/10/28 13:18:33;;;;;;;0.00;0.00;;;22.30;95.00;;;;;;4839312;29;20475;-78
2022/10/28 13:21:41;;;;;;;0.00;0.00;;;22.40;95.00;;;;;;4839593;29;20030;-80
2022/10/28 13:24:20;;;;;;;0.10;0.10;;;22.20;94.90;;;;;;4855625;29;20032;-79
2022/10/28 13:26:47;;;;;;;0.00;0.00;;;22.10;94.80;;;;;;4842390;29;20105;-77
2022/10/28 13:29:30;;;;;;;0.00;0.00;;;21.90;94.80;;;;;;4844394;29;20069;-78
2022/10/28 13:31:55;;;;;;;0.00;0.00;;;21.70;94.80;;;;;;4844756;29;20181;-77
2022/10/28 13:34:32;;;;;;;;;;;21.60;94.90;;;;;;4833992;29;20633;-76
2022/10/28 13:37:05;;;;;;;0.00;0.00;;;21.40;94.90;;;;;;4847993;29;20273;-77
2022/10/28 13:39:31;;;;;;;0.00;0.00;;;21.40;95.10;;;;;;4847382;29;20041;-77
2022/10/28 13:42:12;;;;;;;0.00;0.00;;;21.30;95.00;;;;;;4841981;29;20044;-76
2022/10/28 13:44:51;;;;;;;0.00;0.00;;;21.20;95.00;;;;;;4819289;29;20660;-77
2022/10/28 13:47:25;;;;;;;0.13;0.10;;;21.20;95.20;;;;;;4819335;29;20378;-70
2022/10/28 13:50:06;;;;;;;0.00;0.00;;;21.20;95.10;;;;;;4836969;29;20527;-76
2022/10/28 13:52:36;;;;;;;0.00;0.00;;;21.10;94.80;;;;;;4822387;29;20141;-76
2022/10/28 13:55:25;;;;;;;0.10;0.10;;;20.90;94.60;;;;;;4823180;29;20110;-76
2022/10/28 13:57:59;;;;;;;0.00;0.00;;;20.50;94.50;;;;;;4821353;29;20391;-77
2022/10/28 14:00:24;;;;;;;0.00;0.00;;;20.30;94.40;;;;;;4830636;29;20061;-78
2022/10/28 14:02:54;;;;;;;;;;;20.10;94.40;;;;;;4848309;29;20069;-80
2022/10/28 14:05:33;;;;;;;0.00;0.00;;;20.00;94.40;;;;;;4849390;29;20387;-77
2022/10/28 14:08:27;;;;;;;0.00;0.00;;;19.80;94.30;;;;;;4846735;29;20346;-75
2022/10/28 14:11:21;;;;;;;0.00;0.00;;;19.60;94.30;;;;;;4838934;29;20042;-75
2022/10/28 14:13:58;;;;;;;0.00;0.00;;;19.50;94.30;;;;;;4876325;29;20029;-75
2022/10/28 14:16:44;;;;;;;0.03;0.03;;;19.40;94.20;;;;;;4875924;29;20028;-75
2022/10/28 14:19:10;;;;;;;0.10;0.10;;;19.20;94.20;;;;;;4876388;29;20466;-72
2022/10/28 14:21:44;;;;;;;0.10;0.10;;;19.10;94.20;;;;;;4868381;29;20048;-76
2022/10/28 14:24:28;;;;;;;0.20;0.20;;;19.00;94.20;;;;;;4876035;29;20047;-79
2022/10/28 14:27:06;;;;;;;0.10;0.10;;;18.90;94.10;;;;;;4875214;29;20428;-76
2022/10/28 14:29:43;;;;;;;0.10;0.10;;;18.80;94.20;;;;;;4859465;29;20469;-74
2022/10/28 14:32:31;;;;;;;0.10;0.10;;;18.80;94.20;;;;;;4875021;29;20033;-73
2022/10/28 14:35:29;;;;;;;0.10;0.10;;;18.70;94.20;;;;;;4859581;29;20029;-77
2022/10/28 14:38:51;;;;;;;0.10;0.10;;;18.70;94.20;;;;;;4875884;29;20112;-75
2022/10/28 14:41:25;;;;;;;0.10;0.10;;;18.60;94.10;;;;;;4773162;29;20038;-76
2022/10/28 14:43:56;;;;;;;0.10;0.10;;;18.60;94.10;;;;;;4874190;29;20033;-78
2022/10/28 14:46:50;;;;;;;0.13;0.13;;;18.60;94.20;;;;;;4859666;29;20029;-76
2022/10/28 14:49:31;;;;;;;0.20;0.20;;;18.50;94.10;;;;;;4876125;29;20025;-77
2022/10/28 14:52:12;;;;;;;0.20;0.20;;;18.50;94.00;;;;;;4874673;29;20430;-77
2022/10/28 14:54:47;;;;;;;0.20;0.20;;;18.40;94.00;;;;;;4859386;29;20036;-78
2022/10/28 14:57:15;;;;;;;0.20;0.20;;;18.30;94.00;;;;;;4875738;29;20048;-78
2022/10/28 14:59:44;;;;;;;0.10;0.10;;;18.30;94.00;;;;;;4859870;29;20037;-81
2022/10/28 15:02:12;;;;;;;0.20;0.20;;;18.20;94.10;;;;;;4858414;29;20048;-78
2022/10/28 15:04:40;;;;;;;0.20;0.20;;;18.20;94.10;;;;;;4876695;29;20041;-79
2022/10/28 15:07:12;;;;;;;0.17;0.17;;;18.20;94.00;;;;;;4855153;29;20039;-78
2022/10/28 15:09:38;;;;;;;0.10;0.10;;;18.10;94.00;;;;;;4830007;29;20033;-78
2022/10/28 15:12:08;;;;;;;0.10;0.10;;;18.10;94.00;;;;;;4843363;29;20052;-78
2022/10/28 15:14:55;;;;;;;0.20;0.20;;;18.10;94.00;;;;;;4840316;29;20045;-80
2022/10/28 15:17:28;;;;;;;0.30;0.30;;;18.10;94.00;;;;;;4833311;29;20029;-80
2022/10/28 15:19:58;;;;;;;0.20;0.20;;;18.00;94.00;;;;;;4857082;29;20388;-76
2022/10/28 15:22:30;;;;;;;0.20;0.20;;;18.00;94.00;;;;;;4857106;29;20413;-77
2022/10/28 15:24:57;;;;;;;0.30;0.30;;;17.90;94.00;;;;;;4855965;29;20032;-70
2022/10/28 15:27:24;;;;;;;0.20;0.20;;;17.80;94.00;;;;;;4855784;29;20485;-70
2022/10/28 15:29:49;;;;;;;0.20;0.20;;;17.70;94.00;;;;;;4855500;29;20473;-72
2022/10/28 15:32:18;;;;;;;0.20;0.20;;;17.70;94.00;;;;;;4839927;29;20105;-72
2022/10/28 15:34:44;;;;;;;0.20;0.20;;;17.70;94.00;;;;;;4856412;29;20029;-71
2022/10/28 15:37:16;;;;;;;0.22;0.22;;;17.60;94.00;;;;;;4839894;29;20691;-69
2022/10/28 15:39:44;;;;;;;0.30;0.30;;;17.60;94.00;;;;;;4856262;29;20067;-74
2022/10/28 15:42:49;;;;;;;0.30;0.30;;;17.60;94.00;;;;;;4856084;29;20041;-73
2022/10/28 15:45:22;;;;;;;0.30;0.30;;;17.50;94.00;;;;;;4833395;29;20493;-73
2022/10/28 15:47:49;;;;;;;0.38;0.38;;;17.60;94.00;;;;;;4855817;29;20410;-73
2022/10/28 15:50:28;;;;;;;0.30;0.30;;;17.50;94.00;;;;;;4855295;29;20117;-73
2022/10/28 15:53:22;;;;;;;0.30;0.30;;;17.50;94.00;;;;;;4855140;29;20041;-71
2022/10/28 15:56:08;;;;;;;0.40;0.40;;;17.50;94.00;;;;;;4855549;29;20026;-78
2022/10/28 15:58:45;;;;;;;0.30;0.30;;;17.50;94.00;;;;;;4856572;29;20427;-79
2022/10/28 16:01:37;;;;;;;0.40;0.40;;;17.40;93.90;;;;;;4840209;29;20038;-82
2022/10/28 16:04:05;;;;;;;0.40;0.40;;;17.40;93.90;;;;;;4840764;29;20406;-77
2022/10/28 16:06:33;;;;;;;0.40;0.40;;;17.30;93.90;;;;;;4824968;29;20078;-78
2022/10/28 16:09:08;;;;;;;0.40;0.40;;;17.30;93.90;;;;;;4856773;29;20377;-78
2022/10/28 16:11:40;;;;;;;0.50;0.50;;;17.30;93.90;;;;;;4840420;29;20021;-81
2022/10/28 16:14:24;;;;;;;1.00;0.90;;;17.20;93.90;;;;;;4840550;29;20034;-79
2022/10/28 16:16:50;;;;;;;0.80;0.80;;;17.20;93.90;;;;;;4840236;29;20056;-78
2022/10/28 16:19:41;;;;;;;0.80;0.80;;;17.10;93.90;;;;;;4857427;29;20030;-79
2022/10/28 16:22:11;;;;;;;0.82;0.82;;;17.00;93.90;;;;;;4847229;29;20037;-79
2022/10/28 16:24:37;;;;;;;0.93;0.93;;;16.90;93.90;;;;;;4853840;29;20129;-78
2022/10/28 16:27:17;;;;;;;1.10;1.10;;;16.80;93.90;;;;;;4851983;29;20110;-79
2022/10/28 16:29:43;;;;;;;1.30;1.20;;;16.80;93.90;;;;;;4848795;29;20509;-78
2022/10/28 16:32:14;;;;;;;1.50;1.40;;;16.70;93.90;;;;;;4845070;29;20061;-79
2022/10/28 16:34:40;;;;;;;1.70;1.60;;;16.70;94.00;;;;;;4851329;29;20428;-78
2022/10/28 16:37:36;;;;;;;1.90;1.80;;;16.60;93.90;;;;;;4846717;29;20025;-80
2022/10/28 16:40:01;;;;;;;4.53;2.60;;;16.60;94.00;;;;;;4824715;29;20037;-78
2022/10/28 16:42:27;;;;;;;2.40;2.20;;;16.60;93.90;;;;;;4825000;29;20427;-79
2022/10/28 16:44:53;;;;;;;2.92;2.72;;;16.50;93.90;;;;;;4840285;29;20069;-79
2022/10/28 16:47:20;;;;;;;3.10;2.90;;;16.50;93.90;;;;;;4840222;29;20042;-78
2022/10/28 16:49:47;;;;;;;2.92;2.72;;;16.50;93.90;;;;;;4839672;29;20041;-78
2022/10/28 16:52:21;;;;;;;3.00;2.80;;;16.40;93.90;;;;;;4852310;29;20045;-81
2022/10/28 16:54:48;;;;;;;3.67;3.38;;;16.40;93.90;;;;;;4874529;29;20030;-78
2022/10/28 16:57:14;;;;;;;3.42;3.15;;;16.40;93.90;;;;;;4874790;29;20029;-77
2022/10/28 16:59:40;;;;;;;3.10;2.90;;;16.30;93.90;;;;;;4872381;29;20056;-79
2022/10/28 17:02:14;;;;;;;3.45;3.17;;;16.30;93.90;;;;;;4858081;29;20033;-81
2022/10/28 17:04:40;;;;;;;4.00;3.70;;;16.30;93.90;;;;;;4872860;29;20033;-79
2022/10/28 17:07:06;;;;;;;4.32;4.03;;;16.30;93.90;;;;;;4857870;29;20561;-81
2022/10/28 17:09:32;;;;;;;;;;;16.20;93.90;;;;;;4873968;29;20128;-82
2022/10/28 17:11:57;;;;;;;4.50;4.20;;;16.20;93.90;;;;;;4858589;29;19998;-81
2022/10/28 17:14:23;;;;;;;4.65;4.35;;;16.10;93.90;;;;;;4858792;29;20386;-83
2022/10/28 17:16:49;;;;;;;4.60;4.30;;;16.10;93.90;;;;;;4827258;29;20080;-82
2022/10/28 17:19:14;;;;;;;4.70;4.40;;;16.00;93.90;;;;;;4842004;29;20044;-84
2022/10/28 17:21:41;;;;;;;5.40;5.10;;;16.00;93.90;;;;;;4857915;29;20037;-80
2022/10/28 17:24:07;;;;;;;5.47;5.18;;;16.00;93.90;;;;;;4874350;29;20029;-77
2022/10/28 17:26:33;;;;;;;5.78;5.47;;;15.90;93.90;;;;;;4862481;29;20085;-81
2022/10/28 17:28:59;;;;;;;5.63;5.32;;;15.90;93.90;;;;;;4861966;29;20433;-76
2022/10/28 17:31:24;;;;;;;5.80;5.50;;;15.90;93.90;;;;;;4830225;29;20040;-77
2022/10/28 17:33:53;;;;;;;6.57;6.18;;;15.80;93.90;;;;;;4861411;29;20033;-77
2022/10/28 17:36:19;;;;;;;5.60;5.30;;;15.80;93.90;;;;;;4848342;29;20038;-77
2022/10/28 17:38:44;;;;;;;6.60;6.20;;;15.80;93.90;;;;;;4816539;29;20033;-78
2022/10/28 17:41:10;;;;;;;6.45;6.05;;;15.80;93.90;;;;;;4840624;29;20384;-78
2022/10/28 17:43:36;;;;;;;6.90;6.50;;;15.70;93.90;;;;;;4809842;29;20041;-75
2022/10/28 17:46:03;;;;;;;7.30;6.90;;;15.70;94.10;;;;;;4824422;29;20049;-77
2022/10/28 17:48:29;;;;;;;7.47;7.07;;;15.70;93.90;;;;;;4850905;29;20497;-79
2022/10/28 17:50:54;;;;;;;8.07;7.68;;;15.60;93.90;;;;;;4853404;29;20038;-76
2022/10/28 17:53:21;;;;;;;8.45;8.05;;;15.60;93.90;;;;;;4831126;29;20057;-76
2022/10/28 17:56:00;;;;;;;8.93;8.52;;;15.50;93.90;;;;;;4841466;29;20110;-77
2022/10/28 17:58:26;;;;;;;8.30;7.90;;;15.50;93.90;;;;;;4838414;29;20490;-77
2022/10/28 18:01:10;;;;;;;;;;;15.50;93.90;;;;;;4824827;29;20034;-77
2022/10/28 18:03:37;;;;;;;9.55;9.07;;;15.50;93.90;;;;;;4823719;29;19912;-76
2022/10/28 18:06:06;;;;;;;9.32;8.90;;;15.40;93.90;;;;;;4839878;29;20406;-76
2022/10/28 18:08:33;;;;;;;9.85;9.35;;;15.40;93.90;;;;;;4821327;29;20386;-77
2022/10/28 18:10:59;;;;;;;8.85;8.45;;;15.40;93.90;;;;;;4837333;29;20041;-77
2022/10/28 18:13:30;;;;;;;10.40;9.90;;;15.40;93.90;;;;;;4806002;29;20510;-77
2022/10/28 18:16:01;;;;;;;10.52;10.02;;;15.30;93.90;;;;;;4821312;29;20400;-77
2022/10/28 18:18:27;;;;;;;10.30;9.80;;;15.30;93.90;;;;;;4821377;29;20402;-72
2022/10/28 18:20:54;;;;;;;10.88;10.38;;;15.30;94.00;;;;;;4838427;29;20038;-76
2022/10/28 18:23:20;;;;;;;11.18;10.68;;;15.20;94.00;;;;;;4807199;29;20065;-75
2022/10/28 18:25:47;;;;;;;11.38;10.88;;;15.20;94.00;;;;;;4838264;29;20471;-76
2022/10/28 18:28:12;;;;;;;10.82;10.32;;;15.10;94.00;;;;;;4821274;29;20042;-75
2022/10/28 18:30:38;;;;;;;11.45;10.95;;;15.20;94.00;;;;;;4820256;29;20508;-76
2022/10/28 18:33:04;;;;;;;11.88;11.38;;;15.10;94.00;;;;;;4835909;29;20188;-76
2022/10/28 18:35:29;;;;;;;11.02;10.52;;;15.20;94.00;;;;;;4820057;29;20038;-76
2022/10/28 18:37:55;;;;;;;12.30;11.77;;;15.20;94.00;;;;;;4819208;29;20193;-77
2022/10/28 18:40:21;;;;;;;11.70;11.20;;;15.20;94.00;;;;;;4819961;29;20130;-77
2022/10/28 18:42:46;;;;;;;11.73;11.23;;;15.20;93.90;;;;;;4836543;29;20069;-77
2022/10/28 18:45:12;;;;;;;12.38;11.80;;;15.20;93.90;;;;;;4805067;29;20042;-76
2022/10/28 18:47:38;;;;;;;12.50;11.90;;;15.20;94.00;;;;;;4806042;29;20487;-77
2022/10/28 18:50:04;;;;;;;12.65;12.05;;;15.10;93.90;;;;;;4821736;29;20034;-76
2022/10/28 18:52:30;;;;;;;13.35;12.75;;;15.20;94.00;;;;;;4821661;29;20058;-76
2022/10/28 18:54:55;;;;;;;13.35;12.75;;;15.10;93.90;;;;;;4806384;29;20044;-77
2022/10/28 18:57:21;;;;;;;11.85;11.35;;;15.20;94.00;;;;;;4821276;29;20471;-76
2022/10/28 18:59:47;;;;;;;12.30;11.80;;;15.20;94.00;;;;;;4821549;29;20033;-76
2022/10/28 19:02:12;;;;;;;13.18;12.57;;;15.20;94.00;;;;;;4821584;29;20125;-76
2022/10/28 19:04:38;;;;;;;12.40;11.80;;;15.20;94.00;;;;;;4821183;29;20169;-76
2022/10/28 19:07:04;;;;;;;13.57;12.98;;;15.20;93.90;;;;;;4821600;29;20386;-76
2022/10/28 19:09:30;;;;;;;;;;;15.20;93.90;;;;;;4822052;29;20562;-76
2022/10/28 19:11:55;;;;;;;13.88;13.27;;;15.20;93.90;;;;;;4838404;29;20058;-76
2022/10/28 19:14:21;;;;;;;13.07;12.48;;;15.20;93.90;;;;;;4806447;29;20045;-76
2022/10/28 19:16:47;;;;;;;13.23;12.63;;;15.20;93.90;;;;;;4821385;29;20035;-76
2022/10/28 19:19:13;;;;;;;12.20;11.68;;;15.20;93.90;;;;;;4837892;29;20026;-76
2022/10/28 19:21:38;;;;;;;12.60;12.00;;;15.20;93.90;;;;;;4821800;29;20034;-76
2022/10/28 19:24:04;;;;;;;13.45;12.85;;;15.10;93.90;;;;;;4837883;29;20390;-76
2022/10/28 19:26:32;;;;;;;13.95;13.35;;;15.10;93.90;;;;;;4821399;29;20051;-76
2022/10/28 19:28:58;;;;;;;14.00;13.40;;;15.10;93.90;;;;;;4821219;29;20040;-76
2022/10/28 19:31:25;;;;;;;14.65;14.05;;;15.10;93.90;;;;;;4820929;29;20034;-76
2022/10/28 19:33:52;;;;;;;14.70;14.10;;;15.10;93.90;;;;;;4820852;29;20037;-76
2022/10/28 19:36:21;;;;;;;14.40;13.80;;;15.00;93.90;;;;;;4867230;29;20025;-76
2022/10/28 19:38:48;;;;;;;13.30;12.70;;;15.00;93.90;;;;;;4867538;29;20029;-85
2022/10/28 19:41:16;;;;;;;14.10;13.50;;;15.00;93.90;;;;;;4826415;29;20114;-76
2022/10/28 19:43:42;;;;;;;14.93;14.32;;;15.00;93.90;;;;;;4820406;29;20486;-81
2022/10/28 19:54:00;;;;;;;16.27;15.57;;;14.90;93.90;;;;;;5766301;23;20073;-78
2022/10/28 19:56:27;;;;;;;16.05;15.35;;;14.90;93.90;;;;;;4868466;29;20061;-79
2022/10/28 19:58:56;;;;;;;15.88;15.18;;;14.90;93.90;;;;;;4874721;29;20033;-74
2022/10/28 20:01:22;;;;;;;15.75;15.05;;;14.90;94.10;;;;;;4857337;29;20039;-75
2022/10/28 20:03:49;;;;;;;15.77;15.07;;;14.90;93.90;;;;;;4856993;29;20033;-74
2022/10/28 20:06:17;;;;;;;15.70;15.00;;;14.80;93.90;;;;;;4841628;29;20089;-75
2022/10/28 20:08:48;;;;;;;15.63;14.93;;;14.80;93.90;;;;;;4873504;29;20025;-75
2022/10/28 20:11:22;;;;;;;16.27;15.57;;;14.80;94.00;;;;;;4872171;29;20025;-75
2022/10/28 20:13:55;;;;;;;17.10;16.40;;;14.80;94.00;;;;;;4875977;29;20482;-79
2022/10/28 20:16:22;;;;;;;14.30;13.70;;;14.80;94.00;;;;;;4876022;29;20080;-79
2022/10/28 20:18:48;;;;;;;14.55;13.95;;;14.80;93.90;;;;;;4875508;29;20037;-79
2022/10/28 20:21:21;;;;;;;16.02;15.32;;;14.80;93.90;;;;;;4859243;29;20047;-79
2022/10/28 20:23:49;;;;;;;15.15;14.55;;;14.80;94.00;;;;;;4875686;29;20033;-79
2022/10/28 20:26:15;;;;;;;14.40;13.80;;;14.80;93.90;;;;;;4859035;29;20429;-79
2022/10/28 20:28:41;;;;;;;15.95;15.25;;;14.80;93.90;;;;;;4859005;29;20495;-79
2022/10/28 20:31:09;;;;;;;15.50;14.80;;;14.80;93.90;;;;;;4878380;29;20053;-79
2022/10/28 20:33:37;;;;;;;15.35;14.70;;;14.80;94.00;;;;;;4876921;29;20192;-79
2022/10/28 20:36:03;;;;;;;15.35;14.70;;;14.90;94.00;;;;;;4861408;29;20068;-79
2022/10/28 20:38:29;;;;;;;14.60;14.00;;;14.90;94.00;;;;;;4878318;29;20029;-79
2022/10/28 20:40:57;;;;;;;15.15;14.52;;;14.80;93.90;;;;;;4877370;29;20029;-79
2022/10/28 20:43:25;;;;;;;16.88;16.08;;;14.90;94.00;;;;;;4861156;29;20029;-79
2022/10/28 20:45:57;;;;;;;15.95;15.25;;;14.90;94.00;;;;;;4876607;29;20029;-79
2022/10/28 20:48:23;;;;;;;15.23;14.63;;;14.90;94.00;;;;;;4878806;29;20041;-79
2022/10/28 20:50:51;;;;;;;15.32;14.70;;;14.90;94.00;;;;;;4859168;29;20052;-79
2022/10/28 20:53:17;;;;;;;16.27;15.57;;;14.90;94.00;;;;;;4876508;29;20100;-79
2022/10/28 20:55:43;;;;;;;;;;;14.90;94.00;;;;;;4831584;29;20132;-80
2022/10/28 20:58:09;;;;;;;17.17;16.48;;;14.90;94.00;;;;;;4825214;29;19916;-79
2022/10/28 21:00:35;;;;;;;15.32;14.68;;;14.90;93.90;;;;;;4844138;29;20038;-79
2022/10/28 21:03:00;;;;;;;15.85;15.15;;;14.90;93.90;;;;;;4861465;29;20404;-79
2022/10/28 21:05:26;;;;;;;15.18;14.57;;;14.90;93.90;;;;;;4844777;29;20387;-80
2022/10/28 21:07:53;;;;;;;16.88;16.17;;;14.90;93.90;;;;;;4844830;29;20037;-79
2022/10/28 21:10:19;;;;;;;16.75;16.05;;;14.90;93.90;;;;;;4846091;29;20045;-79
2022/10/28 21:12:44;;;;;;;16.67;15.98;;;14.90;93.90;;;;;;4845590;29;20394;-80
2022/10/28 21:15:10;;;;;;;16.23;15.52;;;14.90;93.90;;;;;;4846596;29;20085;-79
2022/10/28 21:17:36;;;;;;;16.55;15.85;;;14.90;94.00;;;;;;4844975;29;20029;-79
2022/10/28 21:20:02;;;;;;;16.55;15.85;;;14.90;94.00;;;;;;4860215;29;20394;-79
2022/10/28 21:22:27;;;;;;;16.10;15.40;;;14.90;94.00;;;;;;4860470;29;20041;-80
2022/10/28 21:24:53;;;;;;;17.55;16.85;;;14.90;94.00;;;;;;4860185;29;20075;-79
2022/10/28 21:27:19;;;;;;;16.58;15.88;;;14.90;94.00;;;;;;4844988;29;20041;-79
2022/10/28 21:29:44;;;;;;;16.08;15.38;;;14.90;93.90;;;;;;4859531;29;20033;-79
2022/10/28 21:32:10;;;;;;;17.35;16.65;;;14.90;93.90;;;;;;4842985;29;20089;-80
2022/10/28 21:34:36;;;;;;;17.60;16.90;;;14.90;93.90;;;;;;4859431;29;20033;-80
2022/10/28 21:37:02;;;;;;;16.02;15.27;;;14.90;93.90;;;;;;4842489;29;20438;-80
2022/10/28 21:39:27;;;;;;;15.60;14.90;;;14.90;93.90;;;;;;4858780;29;20033;-80
2022/10/28 21:41:53;;;;;;;17.13;16.42;;;14.90;94.00;;;;;;4858801;29;20041;-80
2022/10/28 21:44:19;;;;;;;18.30;17.55;;;14.90;94.00;;;;;;4858400;29;20046;-80
2022/10/28 21:46:47;;;;;;;18.35;17.60;;;14.90;94.00;;;;;;4859749;29;20510;-80
2022/10/28 21:49:12;;;;;;;17.60;16.90;;;14.90;94.00;;;;;;4859404;29;20041;-75
2022/10/28 21:51:38;;;;;;;17.05;16.35;;;14.90;93.90;;;;;;4842825;29;20044;-80
2022/10/28 21:54:04;;;;;;;16.70;16.00;;;14.90;94.00;;;;;;4841887;29;20422;-80
2022/10/28 21:56:30;;;;;;;17.00;16.30;;;14.90;94.00;;;;;;4878794;29;20054;-80
2022/10/28 21:58:55;;;;;;;19.08;17.85;;;14.90;94.00;;;;;;4862176;29;20029;-80
2022/10/28 22:01:23;;;;;;;17.10;16.40;;;14.90;94.00;;;;;;4862423;29;20040;-80
2022/10/28 22:03:50;;;;;;;17.15;16.45;;;14.90;94.00;;;;;;4877583;29;20397;-80
2022/10/28 22:06:16;;;;;;;16.83;16.13;;;14.90;94.00;;;;;;4876384;29;20053;-75
2022/10/28 22:08:42;;;;;;;16.58;15.88;;;14.90;94.00;;;;;;4876452;29;20065;-76
2022/10/28 22:11:11;;;;;;;16.13;15.43;;;14.90;94.00;;;;;;4875407;29;20473;-75
2022/10/28 22:13:37;;;;;;;17.75;17.05;;;14.90;94.00;;;;;;4859415;29;20029;-76
2022/10/28 22:16:12;;;;;;;16.00;15.30;;;14.90;94.00;;;;;;4859498;29;20045;-76
2022/10/28 22:18:38;;;;;;;15.48;14.77;;;14.90;94.00;;;;;;4876021;29;20108;-76
2022/10/28 22:21:16;;;;;;;15.82;15.13;;;14.90;94.00;;;;;;4876047;29;20037;-76
2022/10/28 22:23:42;;;;;;;14.35;13.75;;;14.90;94.00;;;;;;4875993;29;20093;-76
2022/10/28 22:26:11;;;;;;;15.73;15.02;;;14.90;94.00;;;;;;4876494;29;20116;-76
2022/10/28 22:28:37;;;;;;;17.30;16.60;;;15.00;94.00;;;;;;4858937;29;20397;-76
2022/10/28 22:31:06;;;;;;;17.13;16.42;;;14.90;94.00;;;;;;4876240;29;20112;-80
2022/10/28 22:33:32;;;;;;;15.50;14.80;;;14.90;94.00;;;;;;4876100;29;20109;-80
2022/10/28 22:35:59;;;;;;;;;;;14.90;94.00;;;;;;4876566;29;20108;-74
2022/10/28 22:38:25;;;;;;;15.87;15.17;;;14.90;94.00;;;;;;4875775;29;19963;-74
2022/10/28 22:41:05;;;;;;;17.30;16.60;;;14.80;93.90;;;;;;4859247;29;20122;-74
2022/10/28 22:43:32;;;;;;;17.17;16.48;;;14.80;93.90;;;;;;4858854;29;20025;-74
2022/10/28 22:45:58;;;;;;;16.98;16.27;;;14.80;93.90;;;;;;4858982;29;20044;-74
2022/10/28 22:48:24;;;;;;;17.15;16.45;;;14.70;94.00;;;;;;4875576;29;20104;-74
2022/10/28 22:50:51;;;;;;;16.42;15.73;;;14.60;93.90;;;;;;4843375;29;20374;-74
2022/10/28 22:53:18;;;;;;;16.58;15.88;;;14.70;94.00;;;;;;4875572;29;20057;-74
2022/10/28 22:55:45;;;;;;;17.52;16.83;;;14.60;94.00;;;;;;4875180;29;20410;-75
2022/10/28 22:58:11;;;;;;;18.70;17.90;;;14.60;94.00;;;;;;4858542;29;20063;-74
2022/10/28 23:00:37;;;;;;;17.67;16.98;;;14.60;94.00;;;;;;4843261;29;20081;-74
2022/10/28 23:03:03;;;;;;;18.30;17.58;;;14.60;94.00;;;;;;4876060;29;20093;-74